Time,TemperatureF,DewpointF,PressureIn,WindDirection,WindDirectionDegrees,WindSpeedMPH,WindSpeedGustMPH,Humidity,HourlyPrecipIn,Conditions,Clouds,dailyrainin,SoftwareType,DateUTC
2013-03-27 00:00:00,37.2,28.0,30.16,NE,45,1.0,7.0,69,0.00,,,0.02,HR-IXPWINDi_r2_v1.2.,2013-03-27 04:00:00,
2013-03-27 00:05:00,37.3,27.7,30.16,NNW,327,2.0,7.0,68,0.00,,,0.00,HR-IXPWINDi_r2_v1.2.,2013-03-27 04:05:00,
2013-03-27 00:10:00,37.3,27.3,30.16,ENE,63,2.0,7.0,67,0.00,,,0.00,HR-IXPWINDi_r2_v1.2.,2013-03-27 04:10:00,
2013-03-27 00:15:00,37.3,27.0,30.16,WNW,287,1.0,5.0,66,0.00,,,0.00,HR-IXPWINDi_r2_v1.2.,2013-03-27 04:15:00,
2013-03-27 00:20:00,37.3,26.6,30.16,NNW,331,2.0,5.0,65,0.00,,,0.00,HR-IXPWINDi_r2_v1.2.,2013-03-27 04:20:00,
2013-03-27 00:25:00,37.4,27.1,30.16,NNW,337,1.0,10.0,66,0.00,,,0.00,HR-IXPWINDi_r2_v1.2.,2013-03-27 04:25:00,
2013-03-27 00:30:00,37.2,26.9,30.16,North,355,3.0,10.0,66,0.00,,,0.00,HR-IXPWINDi_r2_v1.2.,2013-03-27 04:30:00,
2013-03-27 00:36:00,37.2,26.1,30.16,NW,308,0.0,7.0,64,0.00,,,0.00,HR-IXPWINDi_r2_v1.2.,2013-03-27 04:36:00,
2013-03-27 00:41:00,37.5,26.0,30.16,NW,321,2.0,7.0,63,0.00,,,0.00,HR-IXPWINDi_r2_v1.2.,2013-03-27 04:41:00,
2013-03-27 00:47:00,37.3,26.2,30.16,NNW,328,0.0,7.0,64,0.00,,,0.00,HR-IXPWINDi_r2_v1.2.,2013-03-27 04:47:00,
2013-03-27 00:52:00,37.2,26.5,30.17,NW,319,2.0,5.0,65,0.00,,,0.00,HR-IXPWINDi_r2_v1.2.,2013-03-27 04:52:00,
2013-03-27 00:57:00,37.0,26.3,30.17,NNW,330,4.0,6.0,65,0.00,,,0.00,HR-IXPWINDi_r2_v1.2.,2013-03-27 04:57:00,
2013-03-27 01:02:00,37.1,26.8,30.16,NW,305,1.0,6.0,66,0.00,,,0.00,HR-IXPWINDi_r2_v1.2.,2013-03-27 05:02:00,
2013-03-27 01:07:00,36.8,26.9,30.16,NW,314,2.0,4.0,67,0.00,,,0.00,HR-IXPWINDi_r2_v1.2.,2013-03-27 05:07:00,
2013-03-27 01:47:00,36.6,27.4,30.17,SW,217,0.0,3.0,69,0.00,,,0.00,HR-IXPWINDi_r2_v1.2.,2013-03-27 05:47:00,
2013-03-27 03:18:00,36.1,26.5,30.16,NNW,336,3.0,3.0,68,0.00,,,0.00,HR-IXPWINDi_r2_v1.2.,2013-03-27 07:18:00,
2013-03-27 03:23:00,36.0,26.8,30.16,NNE,13,0.0,8.0,69,0.00,,,0.00,HR-IXPWINDi_r2_v1.2.,2013-03-27 07:23:00,
2013-03-27 03:28:00,36.1,26.5,30.16,NNE,31,0.0,8.0,68,0.00,,,0.00,HR-IXPWINDi_r2_v1.2.,2013-03-27 07:28:00,
2013-03-27 03:34:00,35.9,26.7,30.16,North,9,5.0,7.0,69,0.00,,,0.00,HR-IXPWINDi_r2_v1.2.,2013-03-27 07:34:00,
2013-03-27 03:39:00,35.9,26.4,30.16,NNE,13,0.0,6.0,68,0.00,,,0.00,HR-IXPWINDi_r2_v1.2.,2013-03-27 07:39:00,
2013-03-27 03:44:00,36.0,26.5,30.17,NW,316,3.0,6.0,68,0.00,,,0.00,HR-IXPWINDi_r2_v1.2.,2013-03-27 07:44:00,
2013-03-27 03:49:00,35.8,26.6,30.16,North,355,1.0,6.0,69,0.00,,,0.00,HR-IXPWINDi_r2_v1.2.,2013-03-27 07:49:00,
2013-03-27 03:55:00,35.5,26.7,30.16,NW,312,2.0,6.0,70,0.00,,,0.00,HR-IXPWINDi_r2_v1.2.,2013-03-27 07:55:00,
2013-03-27 04:00:00,35.3,26.5,30.16,NW,317,0.0,5.0,70,0.00,,,0.00,HR-IXPWINDi_r2_v1.2.,2013-03-27 08:00:00,
2013-03-27 04:05:00,35.0,26.2,30.16,NW,306,2.0,4.0,70,0.00,,,0.00,HR-IXPWINDi_r2_v1.2.,2013-03-27 08:05:00,
2013-03-27 04:11:00,35.1,26.3,30.16,WNW,299,3.0,5.0,70,0.00,,,0.00,HR-IXPWINDi_r2_v1.2.,2013-03-27 08:11:00,
2013-03-27 04:16:00,35.1,26.3,30.16,NW,320,2.0,6.0,70,0.00,,,0.00,HR-IXPWINDi_r2_v1.2.,2013-03-27 08:16:00,
2013-03-27 04:21:00,35.2,26.4,30.16,NW,308,1.0,6.0,70,0.00,,,0.00,HR-IXPWINDi_r2_v1.2.,2013-03-27 08:21:00,
2013-03-27 04:26:00,35.1,26.3,30.17,NW,308,2.0,4.0,70,0.00,,,0.00,HR-IXPWINDi_r2_v1.2.,2013-03-27 08:26:00,
2013-03-27 04:31:00,35.1,26.3,30.17,NNE,28,1.0,5.0,70,0.00,,,0.00,HR-IXPWINDi_r2_v1.2.,2013-03-27 08:31:00,
2013-03-27 04:36:00,35.2,26.7,30.16,NW,316,0.0,5.0,71,0.00,,,0.00,HR-IXPWINDi_r2_v1.2.,2013-03-27 08:36:00,
2013-03-27 04:42:00,35.0,26.9,30.17,NW,306,3.0,6.0,72,0.00,,,0.00,HR-IXPWINDi_r2_v1.2.,2013-03-27 08:42:00,
2013-03-27 04:47:00,35.1,27.0,30.17,NW,304,4.0,6.0,72,0.00,,,0.00,HR-IXPWINDi_r2_v1.2.,2013-03-27 08:47:00,
2013-03-27 04:52:00,35.3,26.5,30.17,WNW,287,1.0,6.0,70,0.00,,,0.00,HR-IXPWINDi_r2_v1.2.,2013-03-27 08:52:00,
2013-03-27 04:57:00,35.3,26.8,30.17,WNW,290,0.0,6.0,71,0.00,,,0.00,HR-IXPWINDi_r2_v1.2.,2013-03-27 08:57:00,
2013-03-27 05:02:00,35.3,26.8,30.16,WNW,300,0.0,5.0,71,0.00,,,0.00,HR-IXPWINDi_r2_v1.2.,2013-03-27 09:02:00,
2013-03-27 05:07:00,35.3,27.2,30.17,NW,314,2.0,6.0,72,0.00,,,0.00,HR-IXPWINDi_r2_v1.2.,2013-03-27 09:07:00,
2013-03-27 05:13:00,35.1,27.0,30.17,NW,314,2.0,6.0,72,0.00,,,0.00,HR-IXPWINDi_r2_v1.2.,2013-03-27 09:13:00,
2013-03-27 05:18:00,35.2,26.7,30.17,West,259,0.0,6.0,71,0.00,,,0.00,HR-IXPWINDi_r2_v1.2.,2013-03-27 09:18:00,
2013-03-27 05:23:00,35.2,26.4,30.17,North,355,1.0,6.0,70,0.00,,,0.00,HR-IXPWINDi_r2_v1.2.,2013-03-27 09:23:00,
2013-03-27 05:28:00,35.1,26.3,30.17,ENE,71,2.0,6.0,70,0.00,,,0.00,HR-IXPWINDi_r2_v1.2.,2013-03-27 09:28:00,
2013-03-27 05:33:00,35.1,25.6,30.17,WNW,302,6.0,6.0,68,0.00,,,0.00,HR-IXPWINDi_r2_v1.2.,2013-03-27 09:33:00,
2013-03-27 05:38:00,35.0,25.1,30.17,NW,315,3.0,6.0,67,0.00,,,0.00,HR-IXPWINDi_r2_v1.2.,2013-03-27 09:38:00,
2013-03-27 05:44:00,34.7,25.6,30.17,NNW,333,3.0,6.0,69,0.00,,,0.00,HR-IXPWINDi_r2_v1.2.,2013-03-27 09:44:00,
2013-03-27 05:49:00,34.6,24.8,30.17,WNW,300,0.0,7.0,67,0.00,,,0.00,HR-IXPWINDi_r2_v1.2.,2013-03-27 09:49:00,
2013-03-27 05:54:00,34.4,24.9,30.17,North,355,1.0,7.0,68,0.00,,,0.00,HR-IXPWINDi_r2_v1.2.,2013-03-27 09:54:00,
2013-03-27 05:59:00,34.2,24.4,30.17,NW,309,2.0,4.0,67,0.00,,,0.00,HR-IXPWINDi_r2_v1.2.,2013-03-27 09:59:00,
2013-03-27 06:05:00,34.2,24.4,30.18,NNW,338,2.0,4.0,67,0.00,,,0.00,HR-IXPWINDi_r2_v1.2.,2013-03-27 10:05:00,
2013-03-27 06:10:00,34.1,24.6,30.18,NNE,23,1.0,7.0,68,0.00,,,0.00,HR-IXPWINDi_r2_v1.2.,2013-03-27 10:10:00,
2013-03-27 06:15:00,34.4,24.6,30.18,NNW,328,3.0,7.0,67,0.00,,,0.00,HR-IXPWINDi_r2_v1.2.,2013-03-27 10:15:00,
2013-03-27 06:20:00,34.4,24.6,30.19,NW,305,4.0,6.0,67,0.00,,,0.00,HR-IXPWINDi_r2_v1.2.,2013-03-27 10:20:00,
2013-03-27 06:26:00,34.6,24.8,30.18,ENE,76,4.0,4.0,67,0.00,,,0.00,HR-IXPWINDi_r2_v1.2.,2013-03-27 10:26:00,
2013-03-27 06:31:00,34.6,24.4,30.19,NNE,13,3.0,7.0,66,0.00,,,0.00,HR-IXPWINDi_r2_v1.2.,2013-03-27 10:31:00,
2013-03-27 06:36:00,34.7,24.5,30.19,North,351,0.0,11.0,66,0.00,,,0.00,HR-IXPWINDi_r2_v1.2.,2013-03-27 10:36:00,
2013-03-27 06:41:00,34.7,24.5,30.19,ESE,123,0.0,11.0,66,0.00,,,0.00,HR-IXPWINDi_r2_v1.2.,2013-03-27 10:41:00,
2013-03-27 06:46:00,34.8,24.2,30.19,NW,307,0.0,6.0,65,0.00,,,0.00,HR-IXPWINDi_r2_v1.2.,2013-03-27 10:46:00,
2013-03-27 06:52:00,34.8,24.6,30.19,WNW,302,3.0,5.0,66,0.00,,,0.00,HR-IXPWINDi_r2_v1.2.,2013-03-27 10:52:00,
2013-03-27 06:57:00,34.8,24.2,30.19,North,355,0.0,5.0,65,0.00,,,0.00,HR-IXPWINDi_r2_v1.2.,2013-03-27 10:57:00,
2013-03-27 07:02:00,34.7,24.9,30.19,NW,322,2.0,5.0,67,0.00,,,0.00,HR-IXPWINDi_r2_v1.2.,2013-03-27 11:02:00,
2013-03-27 07:07:00,34.8,24.2,30.19,NW,321,3.0,6.0,65,0.00,,,0.00,HR-IXPWINDi_r2_v1.2.,2013-03-27 11:07:00,
2013-03-27 07:12:00,35.0,24.0,30.19,NW,315,0.0,7.0,64,0.00,,,0.00,HR-IXPWINDi_r2_v1.2.,2013-03-27 11:12:00,
2013-03-27 07:17:00,35.1,24.1,30.19,NW,308,0.0,7.0,64,0.00,,,0.00,HR-IXPWINDi_r2_v1.2.,2013-03-27 11:17:00,
2013-03-27 07:23:00,35.1,24.5,30.19,NW,319,2.0,6.0,65,0.00,,,0.00,HR-IXPWINDi_r2_v1.2.,2013-03-27 11:23:00,
2013-03-27 07:28:00,35.2,24.6,30.20,WSW,245,1.0,6.0,65,0.00,,,0.00,HR-IXPWINDi_r2_v1.2.,2013-03-27 11:28:00,
2013-03-27 07:33:00,35.2,24.2,30.20,ENE,63,1.0,6.0,64,0.00,,,0.00,HR-IXPWINDi_r2_v1.2.,2013-03-27 11:33:00,
2013-03-27 07:38:00,35.3,24.3,30.20,SSE,164,0.0,6.0,64,0.00,,,0.00,HR-IXPWINDi_r2_v1.2.,2013-03-27 11:38:00,
2013-03-27 07:43:00,35.3,24.3,30.20,NW,311,3.0,5.0,64,0.00,,,0.00,HR-IXPWINDi_r2_v1.2.,2013-03-27 11:43:00,
2013-03-27 07:48:00,35.3,24.3,30.20,SW,229,0.0,6.0,64,0.00,,,0.00,HR-IXPWINDi_r2_v1.2.,2013-03-27 11:48:00,
2013-03-27 07:53:00,35.4,25.2,30.21,NW,310,2.0,6.0,66,0.00,,,0.00,HR-IXPWINDi_r2_v1.2.,2013-03-27 11:53:00,
2013-03-27 07:58:00,35.5,24.5,30.21,NW,316,2.0,10.0,64,0.00,,,0.00,HR-IXPWINDi_r2_v1.2.,2013-03-27 11:58:00,
2013-03-27 08:03:00,35.7,24.3,30.20,NW,306,2.0,10.0,63,0.00,,,0.00,HR-IXPWINDi_r2_v1.2.,2013-03-27 12:03:00,
2013-03-27 08:08:00,35.7,26.2,30.21,WNW,302,1.0,7.0,68,0.00,,,0.00,HR-IXPWINDi_r2_v1.2.,2013-03-27 12:08:00,
2013-03-27 08:14:00,35.7,24.7,30.21,SE,128,2.0,6.0,64,0.00,,,0.00,HR-IXPWINDi_r2_v1.2.,2013-03-27 12:14:00,
2013-03-27 08:19:00,35.9,24.9,30.21,NW,325,2.0,9.0,64,0.00,,,0.00,HR-IXPWINDi_r2_v1.2.,2013-03-27 12:19:00,
2013-03-27 08:24:00,35.9,24.9,30.21,WNW,300,0.0,9.0,64,0.00,,,0.00,HR-IXPWINDi_r2_v1.2.,2013-03-27 12:24:00,
2013-03-27 08:29:00,35.9,24.5,30.21,North,355,1.0,10.0,63,0.00,,,0.00,HR-IXPWINDi_r2_v1.2.,2013-03-27 12:29:00,
2013-03-27 08:34:00,36.0,24.6,30.21,NW,324,3.0,10.0,63,0.00,,,0.00,HR-IXPWINDi_r2_v1.2.,2013-03-27 12:34:00,
2013-03-27 08:39:00,36.2,24.8,30.22,NW,304,1.0,7.0,63,0.00,,,0.00,HR-IXPWINDi_r2_v1.2.,2013-03-27 12:39:00,
2013-03-27 08:45:00,36.3,24.9,30.22,NW,307,3.0,5.0,63,0.00,,,0.00,HR-IXPWINDi_r2_v1.2.,2013-03-27 12:45:00,
2013-03-27 08:50:00,36.4,24.2,30.22,NW,306,1.0,9.0,61,0.00,,,0.00,HR-IXPWINDi_r2_v1.2.,2013-03-27 12:50:00,
2013-03-27 08:55:00,36.3,24.5,30.23,WNW,299,1.0,9.0,62,0.00,,,0.00,HR-IXPWINDi_r2_v1.2.,2013-03-27 12:55:00,
2013-03-27 09:00:00,36.4,24.6,30.23,NNW,335,2.0,6.0,62,0.00,,,0.00,HR-IXPWINDi_r2_v1.2.,2013-03-27 13:00:00,
2013-03-27 09:05:00,36.4,24.2,30.23,WNW,292,2.0,7.0,61,0.00,,,0.00,HR-IXPWINDi_r2_v1.2.,2013-03-27 13:05:00,
2013-03-27 09:10:00,36.4,25.0,30.23,NW,304,2.0,10.0,63,0.00,,,0.00,HR-IXPWINDi_r2_v1.2.,2013-03-27 13:10:00,
2013-03-27 09:16:00,36.5,24.3,30.24,WNW,298,3.0,10.0,61,0.00,,,0.00,HR-IXPWINDi_r2_v1.2.,2013-03-27 13:16:00,
2013-03-27 09:21:00,36.7,24.9,30.24,NW,316,2.0,6.0,62,0.00,,,0.00,HR-IXPWINDi_r2_v1.2.,2013-03-27 13:21:00,
2013-03-27 09:26:00,37.1,24.9,30.24,North,349,3.0,6.0,61,0.00,,,0.00,HR-IXPWINDi_r2_v1.2.,2013-03-27 13:26:00,
2013-03-27 09:31:00,37.2,24.6,30.24,NE,52,2.0,10.0,60,0.00,,,0.00,HR-IXPWINDi_r2_v1.2.,2013-03-27 13:31:00,
2013-03-27 09:37:00,37.1,24.9,30.24,WNW,286,1.0,10.0,61,0.00,,,0.00,HR-IXPWINDi_r2_v1.2.,2013-03-27 13:37:00,
2013-03-27 09:42:00,37.0,24.8,30.24,NNW,333,0.0,6.0,61,0.00,,,0.00,HR-IXPWINDi_r2_v1.2.,2013-03-27 13:42:00,
2013-03-27 09:47:00,37.0,24.8,30.25,NW,315,2.0,6.0,61,0.00,,,0.00,HR-IXPWINDi_r2_v1.2.,2013-03-27 13:47:00,
2013-03-27 09:52:00,37.1,24.5,30.24,WNW,297,1.0,8.0,60,0.00,,,0.00,HR-IXPWINDi_r2_v1.2.,2013-03-27 13:52:00,
2013-03-27 09:57:00,37.2,25.0,30.24,North,350,2.0,8.0,61,0.00,,,0.00,HR-IXPWINDi_r2_v1.2.,2013-03-27 13:57:00,
2013-03-27 10:02:00,37.5,24.5,30.24,NE,42,3.0,8.0,59,0.00,,,0.00,HR-IXPWINDi_r2_v1.2.,2013-03-27 14:02:00,
2013-03-27 10:08:00,37.5,24.9,30.25,WNW,288,0.0,8.0,60,0.00,,,0.00,HR-IXPWINDi_r2_v1.2.,2013-03-27 14:08:00,
2013-03-27 10:13:00,37.6,25.0,30.24,NW,314,2.0,7.0,60,0.00,,,0.00,HR-IXPWINDi_r2_v1.2.,2013-03-27 14:13:00,
2013-03-27 10:18:00,38.2,25.1,30.24,NNE,22,5.0,6.0,59,0.00,,,0.00,HR-IXPWINDi_r2_v1.2.,2013-03-27 14:18:00,
2013-03-27 10:23:00,38.4,24.5,30.24,NW,306,2.0,7.0,57,0.00,,,0.00,HR-IXPWINDi_r2_v1.2.,2013-03-27 14:23:00,
2013-03-27 10:28:00,38.2,24.3,30.24,North,5,0.0,7.0,57,0.00,,,0.00,HR-IXPWINDi_r2_v1.2.,2013-03-27 14:28:00,
2013-03-27 10:33:00,38.2,25.1,30.24,NNE,22,5.0,7.0,59,0.00,,,0.00,HR-IXPWINDi_r2_v1.2.,2013-03-27 14:33:00,
2013-03-27 10:38:00,38.3,24.8,30.24,NNW,338,0.0,7.0,58,0.00,,,0.00,HR-IXPWINDi_r2_v1.2.,2013-03-27 14:38:00,
2013-03-27 10:44:00,38.5,25.8,30.25,WNW,286,1.0,7.0,60,0.00,,,0.00,HR-IXPWINDi_r2_v1.2.,2013-03-27 14:44:00,
2013-03-27 10:49:00,38.4,24.9,30.25,NW,313,3.0,4.0,58,0.00,,,0.00,HR-IXPWINDi_r2_v1.2.,2013-03-27 14:49:00,
2013-03-27 10:54:00,38.4,24.9,30.25,NNE,13,2.0,7.0,58,0.00,,,0.00,HR-IXPWINDi_r2_v1.2.,2013-03-27 14:54:00,
2013-03-27 11:00:00,38.3,24.4,30.26,NNW,331,2.0,7.0,57,0.00,,,0.00,HR-IXPWINDi_r2_v1.2.,2013-03-27 15:00:00,
2013-03-27 11:05:00,38.1,24.6,30.26,SSW,211,1.0,6.0,58,0.00,,,0.00,HR-IXPWINDi_r2_v1.2.,2013-03-27 15:05:00,
2013-03-27 11:10:00,37.8,25.2,30.26,WSW,257,0.0,6.0,60,0.00,,,0.00,HR-IXPWINDi_r2_v1.2.,2013-03-27 15:10:00,
2013-03-27 11:15:00,37.8,25.2,30.26,ENE,61,0.0,6.0,60,0.00,,,0.00,HR-IXPWINDi_r2_v1.2.,2013-03-27 15:15:00,
2013-03-27 11:20:00,38.0,25.7,30.26,WNW,301,2.0,5.0,61,0.00,,,0.00,HR-IXPWINDi_r2_v1.2.,2013-03-27 15:20:00,
2013-03-27 11:25:00,38.2,24.3,30.26,NNW,345,3.0,7.0,57,0.00,,,0.00,HR-IXPWINDi_r2_v1.2.,2013-03-27 15:25:00,
2013-03-27 11:30:00,38.5,25.8,30.26,NNE,16,3.0,7.0,60,0.00,,,0.00,HR-IXPWINDi_r2_v1.2.,2013-03-27 15:30:00,
2013-03-27 11:35:00,38.7,25.2,30.26,NNE,21,1.0,5.0,58,0.00,,,0.00,HR-IXPWINDi_r2_v1.2.,2013-03-27 15:35:00,
2013-03-27 11:41:00,39.0,25.9,30.26,North,11,3.0,5.0,59,0.00,,,0.00,HR-IXPWINDi_r2_v1.2.,2013-03-27 15:41:00,
2013-03-27 11:46:00,39.0,25.5,30.27,NW,324,0.0,6.0,58,0.00,,,0.00,HR-IXPWINDi_r2_v1.2.,2013-03-27 15:46:00,
2013-03-27 11:51:00,39.0,25.5,30.26,NNW,346,1.0,10.0,58,0.00,,,0.00,HR-IXPWINDi_r2_v1.2.,2013-03-27 15:51:00,
2013-03-27 11:56:00,39.5,26.7,30.26,NW,304,0.0,10.0,60,0.00,,,0.00,HR-IXPWINDi_r2_v1.2.,2013-03-27 15:56:00,
2013-03-27 12:02:00,39.7,27.3,30.27,NNW,329,1.0,7.0,61,0.00,,,0.00,HR-IXPWINDi_r2_v1.2.,2013-03-27 16:02:00,
2013-03-27 12:07:00,40.0,27.2,30.27,NW,314,1.0,7.0,60,0.00,,,0.00,HR-IXPWINDi_r2_v1.2.,2013-03-27 16:07:00,
2013-03-27 12:12:00,39.9,27.1,30.27,SSE,167,1.0,8.0,60,0.00,,,0.00,HR-IXPWINDi_r2_v1.2.,2013-03-27 16:12:00,
2013-03-27 12:17:00,39.3,28.1,30.27,NW,318,1.0,13.0,64,0.00,,,0.00,HR-IXPWINDi_r2_v1.2.,2013-03-27 16:17:00,
2013-03-27 12:22:00,39.8,27.4,30.27,North,351,3.0,13.0,61,0.00,,,0.00,HR-IXPWINDi_r2_v1.2.,2013-03-27 16:22:00,
2013-03-27 12:27:00,40.2,27.0,30.27,NE,38,5.0,10.0,59,0.00,,,0.00,HR-IXPWINDi_r2_v1.2.,2013-03-27 16:27:00,
2013-03-27 12:33:00,40.0,26.4,30.27,NW,305,7.0,10.0,58,0.00,,,0.00,HR-IXPWINDi_r2_v1.2.,2013-03-27 16:33:00,
2013-03-27 12:38:00,40.4,25.9,30.26,WNW,300,1.0,9.0,56,0.00,,,0.00,HR-IXPWINDi_r2_v1.2.,2013-03-27 16:38:00,
2013-03-27 12:43:00,41.3,27.2,30.27,WNW,302,3.0,8.0,57,0.00,,,0.00,HR-IXPWINDi_r2_v1.2.,2013-03-27 16:43:00,
2013-03-27 12:48:00,41.5,27.0,30.27,NNE,32,5.0,10.0,56,0.00,,,0.00,HR-IXPWINDi_r2_v1.2.,2013-03-27 16:48:00,
2013-03-27 12:53:00,40.7,27.1,30.27,WNW,298,1.0,10.0,58,0.00,,,0.00,HR-IXPWINDi_r2_v1.2.,2013-03-27 16:53:00,
2013-03-27 12:59:00,40.1,26.9,30.27,ENE,62,7.0,13.0,59,0.00,,,0.00,HR-IXPWINDi_r2_v1.2.,2013-03-27 16:59:00,
2013-03-27 13:04:00,39.4,25.8,30.27,NNW,347,2.0,13.0,58,0.00,,,0.00,HR-IXPWINDi_r2_v1.2.,2013-03-27 17:04:00,
2013-03-27 13:09:00,39.8,26.2,30.27,North,350,4.0,13.0,58,0.00,,,0.00,HR-IXPWINDi_r2_v1.2.,2013-03-27 17:09:00,
2013-03-27 13:14:00,40.6,27.4,30.27,WNW,298,2.0,6.0,59,0.00,,,0.00,HR-IXPWINDi_r2_v1.2.,2013-03-27 17:14:00,
2013-03-27 13:19:00,41.0,26.5,30.27,NE,47,8.0,11.0,56,0.00,,,0.00,HR-IXPWINDi_r2_v1.2.,2013-03-27 17:19:00,
2013-03-27 13:24:00,41.4,28.5,30.27,NNW,330,2.0,11.0,60,0.00,,,0.00,HR-IXPWINDi_r2_v1.2.,2013-03-27 17:24:00,
2013-03-27 13:29:00,41.8,28.5,30.27,NNE,14,3.0,8.0,59,0.00,,,0.00,HR-IXPWINDi_r2_v1.2.,2013-03-27 17:29:00,
2013-03-27 13:34:00,42.0,26.1,30.27,North,360,0.0,8.0,53,0.00,,,0.00,HR-IXPWINDi_r2_v1.2.,2013-03-27 17:34:00,
2013-03-27 13:40:00,42.5,27.5,30.27,NNW,339,1.0,8.0,55,0.00,,,0.00,HR-IXPWINDi_r2_v1.2.,2013-03-27 17:40:00,
2013-03-27 13:45:00,42.8,28.2,30.27,NNW,334,4.0,7.0,56,0.00,,,0.00,HR-IXPWINDi_r2_v1.2.,2013-03-27 17:45:00,
2013-03-27 13:50:00,42.0,27.0,30.27,NW,317,2.0,13.0,55,0.00,,,0.00,HR-IXPWINDi_r2_v1.2.,2013-03-27 17:50:00,
2013-03-27 13:55:00,42.1,27.9,30.27,NW,311,6.0,13.0,57,0.00,,,0.00,HR-IXPWINDi_r2_v1.2.,2013-03-27 17:55:00,
2013-03-27 14:01:00,41.0,27.8,30.27,WNW,301,1.0,10.0,59,0.00,,,0.00,HR-IXPWINDi_r2_v1.2.,2013-03-27 18:01:00,
2013-03-27 14:06:00,40.4,28.0,30.27,NW,304,6.0,6.0,61,0.00,,,0.00,HR-IXPWINDi_r2_v1.2.,2013-03-27 18:06:00,
2013-03-27 14:11:00,40.4,27.6,30.27,North,5,2.0,9.0,60,0.00,,,0.00,HR-IXPWINDi_r2_v1.2.,2013-03-27 18:11:00,
2013-03-27 14:16:00,41.1,28.3,30.26,North,355,3.0,9.0,60,0.00,,,0.00,HR-IXPWINDi_r2_v1.2.,2013-03-27 18:16:00,
2013-03-27 14:21:00,41.7,28.0,30.26,NNW,344,1.0,9.0,58,0.00,,,0.00,HR-IXPWINDi_r2_v1.2.,2013-03-27 18:21:00,
2013-03-27 14:26:00,42.4,26.0,30.26,West,266,5.0,9.0,52,0.00,,,0.00,HR-IXPWINDi_r2_v1.2.,2013-03-27 18:26:00,
2013-03-27 14:31:00,41.9,26.9,30.26,NW,304,0.0,8.0,55,0.00,,,0.00,HR-IXPWINDi_r2_v1.2.,2013-03-27 18:31:00,
2013-03-27 14:36:00,41.6,27.5,30.26,NE,42,4.0,5.0,57,0.00,,,0.00,HR-IXPWINDi_r2_v1.2.,2013-03-27 18:36:00,
2013-03-27 14:42:00,41.4,26.4,30.26,NE,36,2.0,6.0,55,0.00,,,0.00,HR-IXPWINDi_r2_v1.2.,2013-03-27 18:42:00,
2013-03-27 14:47:00,41.1,25.3,30.26,NNE,16,4.0,11.0,53,0.00,,,0.00,HR-IXPWINDi_r2_v1.2.,2013-03-27 18:47:00,
2013-03-27 14:52:00,41.1,26.1,30.26,NW,325,2.0,11.0,55,0.00,,,0.00,HR-IXPWINDi_r2_v1.2.,2013-03-27 18:52:00,
2013-03-27 14:57:00,41.8,28.1,30.26,NW,316,4.0,6.0,58,0.00,,,0.00,HR-IXPWINDi_r2_v1.2.,2013-03-27 18:57:00,
2013-03-27 15:03:00,42.4,28.6,30.25,North,5,5.0,6.0,58,0.00,,,0.00,HR-IXPWINDi_r2_v1.2.,2013-03-27 19:03:00,
2013-03-27 15:08:00,42.9,28.7,30.25,NW,311,6.0,6.0,57,0.00,,,0.00,HR-IXPWINDi_r2_v1.2.,2013-03-27 19:08:00,
2013-03-27 15:13:00,42.5,26.1,30.25,NNE,13,1.0,6.0,52,0.00,,,0.00,HR-IXPWINDi_r2_v1.2.,2013-03-27 19:13:00,
2013-03-27 15:18:00,41.9,26.5,30.25,NW,304,2.0,6.0,54,0.00,,,0.00,HR-IXPWINDi_r2_v1.2.,2013-03-27 19:18:00,
2013-03-27 15:23:00,41.9,26.9,30.25,NNE,12,3.0,7.0,55,0.00,,,0.00,HR-IXPWINDi_r2_v1.2.,2013-03-27 19:23:00,
2013-03-27 15:28:00,41.6,27.5,30.24,NW,318,0.0,7.0,57,0.00,,,0.00,HR-IXPWINDi_r2_v1.2.,2013-03-27 19:28:00,
2013-03-27 15:34:00,41.7,26.7,30.24,NW,314,2.0,7.0,55,0.00,,,0.00,HR-IXPWINDi_r2_v1.2.,2013-03-27 19:34:00,
2013-03-27 15:39:00,41.5,26.1,30.24,NNE,17,0.0,6.0,54,0.00,,,0.00,HR-IXPWINDi_r2_v1.2.,2013-03-27 19:39:00,
2013-03-27 15:44:00,41.4,26.4,30.24,NW,325,1.0,6.0,55,0.00,,,0.00,HR-IXPWINDi_r2_v1.2.,2013-03-27 19:44:00,
2013-03-27 15:49:00,41.5,27.4,30.24,ENE,59,5.0,7.0,57,0.00,,,0.00,HR-IXPWINDi_r2_v1.2.,2013-03-27 19:49:00,
2013-03-27 15:54:00,41.3,26.3,30.24,East,80,1.0,8.0,55,0.00,,,0.00,HR-IXPWINDi_r2_v1.2.,2013-03-27 19:54:00,
2013-03-27 15:59:00,41.4,26.9,30.23,NNW,333,0.0,8.0,56,0.00,,,0.00,HR-IXPWINDi_r2_v1.2.,2013-03-27 19:59:00,
2013-03-27 16:04:00,41.6,24.8,30.23,NNE,32,3.0,6.0,51,0.00,,,0.00,HR-IXPWINDi_r2_v1.2.,2013-03-27 20:04:00,
2013-03-27 16:09:00,41.6,24.8,30.23,NE,34,2.0,6.0,51,0.00,,,0.00,HR-IXPWINDi_r2_v1.2.,2013-03-27 20:09:00,
2013-03-27 16:15:00,41.7,24.9,30.23,ENE,65,4.0,6.0,51,0.00,,,0.00,HR-IXPWINDi_r2_v1.2.,2013-03-27 20:15:00,
2013-03-27 16:20:00,42.0,25.2,30.23,NNE,15,2.0,6.0,51,0.00,,,0.00,HR-IXPWINDi_r2_v1.2.,2013-03-27 20:20:00,
2013-03-27 16:25:00,42.3,25.0,30.23,North,360,3.0,6.0,50,0.00,,,0.00,HR-IXPWINDi_r2_v1.2.,2013-03-27 20:25:00,
2013-03-27 16:30:00,42.7,27.2,30.22,NW,324,4.0,7.0,54,0.00,,,0.00,HR-IXPWINDi_r2_v1.2.,2013-03-27 20:30:00,
2013-03-27 16:35:00,42.9,25.5,30.22,NNE,15,2.0,8.0,50,0.00,,,0.00,HR-IXPWINDi_r2_v1.2.,2013-03-27 20:35:00,
2013-03-27 16:41:00,42.9,25.5,30.22,NNE,25,2.0,8.0,50,0.00,,,0.00,HR-IXPWINDi_r2_v1.2.,2013-03-27 20:41:00,
2013-03-27 16:46:00,42.9,25.0,30.22,SE,146,0.0,8.0,49,0.00,,,0.00,HR-IXPWINDi_r2_v1.2.,2013-03-27 20:46:00,
2013-03-27 16:51:00,43.1,25.2,30.22,NNE,14,0.0,5.0,49,0.00,,,0.00,HR-IXPWINDi_r2_v1.2.,2013-03-27 20:51:00,
2013-03-27 16:56:00,43.6,26.2,30.22,NW,321,4.0,7.0,50,0.00,,,0.00,HR-IXPWINDi_r2_v1.2.,2013-03-27 20:56:00,
2013-03-27 17:02:00,43.8,26.8,30.22,ENE,72,1.0,7.0,51,0.00,,,0.00,HR-IXPWINDi_r2_v1.2.,2013-03-27 21:02:00,
2013-03-27 17:07:00,43.4,26.0,30.22,North,355,2.0,7.0,50,0.00,,,0.00,HR-IXPWINDi_r2_v1.2.,2013-03-27 21:07:00,
2013-03-27 17:12:00,43.4,25.5,30.22,NNE,25,2.0,7.0,49,0.00,,,0.00,HR-IXPWINDi_r2_v1.2.,2013-03-27 21:12:00,
2013-03-27 17:18:00,43.8,25.4,30.22,WNW,285,4.0,9.0,48,0.00,,,0.00,HR-IXPWINDi_r2_v1.2.,2013-03-27 21:18:00,
2013-03-27 17:23:00,43.8,26.4,30.22,NNW,346,2.0,9.0,50,0.00,,,0.00,HR-IXPWINDi_r2_v1.2.,2013-03-27 21:23:00,
2013-03-27 17:28:00,43.3,26.8,30.22,NW,308,3.0,9.0,52,0.00,,,0.00,HR-IXPWINDi_r2_v1.2.,2013-03-27 21:28:00,
2013-03-27 17:33:00,42.6,25.7,30.22,WNW,297,3.0,7.0,51,0.00,,,0.00,HR-IXPWINDi_r2_v1.2.,2013-03-27 21:33:00,
2013-03-27 17:38:00,42.2,26.3,30.23,NW,308,3.0,7.0,53,0.00,,,0.00,HR-IXPWINDi_r2_v1.2.,2013-03-27 21:38:00,
2013-03-27 17:43:00,42.1,26.6,30.23,NNW,336,2.0,7.0,54,0.00,,,0.00,HR-IXPWINDi_r2_v1.2.,2013-03-27 21:43:00,
2013-03-27 17:49:00,41.9,25.5,30.23,NW,317,1.0,7.0,52,0.00,,,0.00,HR-IXPWINDi_r2_v1.2.,2013-03-27 21:49:00,
2013-03-27 17:54:00,41.9,26.0,30.23,NNE,12,2.0,7.0,53,0.00,,,0.00,HR-IXPWINDi_r2_v1.2.,2013-03-27 21:54:00,
2013-03-27 17:59:00,41.8,25.0,30.23,North,5,1.0,6.0,51,0.00,,,0.00,HR-IXPWINDi_r2_v1.2.,2013-03-27 21:59:00,
2013-03-27 18:04:00,41.7,25.8,30.23,WSW,239,1.0,6.0,53,0.00,,,0.00,HR-IXPWINDi_r2_v1.2.,2013-03-27 22:04:00,
2013-03-27 18:09:00,41.6,26.2,30.24,NW,319,0.0,5.0,54,0.00,,,0.00,HR-IXPWINDi_r2_v1.2.,2013-03-27 22:09:00,
2013-03-27 18:14:00,41.5,26.1,30.23,NW,321,3.0,6.0,54,0.00,,,0.00,HR-IXPWINDi_r2_v1.2.,2013-03-27 22:14:00,
2013-03-27 18:20:00,41.4,26.9,30.23,NNW,331,1.0,6.0,56,0.00,,,0.00,HR-IXPWINDi_r2_v1.2.,2013-03-27 22:20:00,
2013-03-27 18:25:00,41.4,26.9,30.23,NW,317,0.0,5.0,56,0.00,,,0.00,HR-IXPWINDi_r2_v1.2.,2013-03-27 22:25:00,
2013-03-27 18:30:00,41.3,26.8,30.23,NNW,340,0.0,3.0,56,0.00,,,0.00,HR-IXPWINDi_r2_v1.2.,2013-03-27 22:30:00,
2013-03-27 18:35:00,41.2,27.5,30.23,North,5,1.0,3.0,58,0.00,,,0.00,HR-IXPWINDi_r2_v1.2.,2013-03-27 22:35:00,
2013-03-27 18:40:00,41.1,27.0,30.23,NW,309,0.0,3.0,57,0.00,,,0.00,HR-IXPWINDi_r2_v1.2.,2013-03-27 22:40:00,
2013-03-27 18:45:00,40.9,27.2,30.23,NW,304,0.0,3.0,58,0.00,,,0.00,HR-IXPWINDi_r2_v1.2.,2013-03-27 22:45:00,
2013-03-27 18:50:00,40.9,26.8,30.23,NNE,24,3.0,4.0,57,0.00,,,0.00,HR-IXPWINDi_r2_v1.2.,2013-03-27 22:50:00,
2013-03-27 18:55:00,40.9,27.2,30.24,West,277,0.0,4.0,58,0.00,,,0.00,HR-IXPWINDi_r2_v1.2.,2013-03-27 22:55:00,
2013-03-27 19:01:00,40.9,27.7,30.24,NE,53,3.0,10.0,59,0.00,,,0.00,HR-IXPWINDi_r2_v1.2.,2013-03-27 23:01:00,
2013-03-27 19:06:00,40.9,28.5,30.24,NW,323,4.0,10.0,61,0.00,,,0.00,HR-IXPWINDi_r2_v1.2.,2013-03-27 23:06:00,
2013-03-27 19:11:00,40.6,27.8,30.24,NW,323,2.0,10.0,60,0.00,,,0.00,HR-IXPWINDi_r2_v1.2.,2013-03-27 23:11:00,
2013-03-27 19:16:00,40.4,27.6,30.24,NW,315,2.0,5.0,60,0.00,,,0.00,HR-IXPWINDi_r2_v1.2.,2013-03-27 23:16:00,
2013-03-27 19:21:00,40.2,27.4,30.25,NNW,330,0.0,4.0,60,0.00,,,0.00,HR-IXPWINDi_r2_v1.2.,2013-03-27 23:21:00,
2013-03-27 19:27:00,40.1,26.9,30.25,NE,54,5.0,6.0,59,0.00,,,0.00,HR-IXPWINDi_r2_v1.2.,2013-03-27 23:27:00,
2013-03-27 19:32:00,40.1,26.9,30.25,NNW,328,0.0,7.0,59,0.00,,,0.00,HR-IXPWINDi_r2_v1.2.,2013-03-27 23:32:00,
2013-03-27 19:37:00,40.1,27.3,30.25,NE,34,4.0,7.0,60,0.00,,,0.00,HR-IXPWINDi_r2_v1.2.,2013-03-27 23:37:00,
2013-03-27 19:42:00,40.0,27.6,30.25,NNE,26,5.0,7.0,61,0.00,,,0.00,HR-IXPWINDi_r2_v1.2.,2013-03-27 23:42:00,
2013-03-27 19:48:00,39.9,27.9,30.26,NNW,331,3.0,7.0,62,0.00,,,0.00,HR-IXPWINDi_r2_v1.2.,2013-03-27 23:48:00,
2013-03-27 19:53:00,39.8,28.6,30.26,WNW,302,2.0,7.0,64,0.00,,,0.00,HR-IXPWINDi_r2_v1.2.,2013-03-27 23:53:00,
2013-03-27 19:58:00,39.5,28.3,30.26,WNW,295,2.0,8.0,64,0.00,,,0.00,HR-IXPWINDi_r2_v1.2.,2013-03-27 23:58:00,
2013-03-27 20:03:00,39.3,28.1,30.26,NW,306,0.0,8.0,64,0.00,,,0.00,HR-IXPWINDi_r2_v1.2.,2013-03-28 00:03:00,
2013-03-27 20:08:00,39.1,27.9,30.26,SE,131,3.0,6.0,64,0.00,,,0.00,HR-IXPWINDi_r2_v1.2.,2013-03-28 00:08:00,
2013-03-27 20:13:00,39.0,27.8,30.26,SW,216,2.0,6.0,64,0.00,,,0.00,HR-IXPWINDi_r2_v1.2.,2013-03-28 00:13:00,
2013-03-27 20:19:00,38.8,27.6,30.26,NW,319,2.0,5.0,64,0.00,,,0.00,HR-IXPWINDi_r2_v1.2.,2013-03-28 00:19:00,
2013-03-27 20:24:00,38.7,27.6,30.26,NNW,346,2.0,5.0,64,0.00,,,0.00,HR-IXPWINDi_r2_v1.2.,2013-03-28 00:24:00,
2013-03-27 20:29:00,38.6,27.5,30.26,NW,313,2.0,5.0,64,0.00,,,0.00,HR-IXPWINDi_r2_v1.2.,2013-03-28 00:29:00,
2013-03-27 20:34:00,38.6,27.5,30.26,NNE,13,0.0,8.0,64,0.00,,,0.00,HR-IXPWINDi_r2_v1.2.,2013-03-28 00:34:00,
2013-03-27 20:39:00,38.6,27.5,30.26,NNE,28,5.0,8.0,64,0.00,,,0.00,HR-IXPWINDi_r2_v1.2.,2013-03-28 00:39:00,
2013-03-27 20:45:00,38.5,28.1,30.26,NNE,19,1.0,8.0,66,0.00,,,0.00,HR-IXPWINDi_r2_v1.2.,2013-03-28 00:45:00,
2013-03-27 20:50:00,38.4,27.3,30.26,South,179,1.0,7.0,64,0.00,,,0.00,HR-IXPWINDi_r2_v1.2.,2013-03-28 00:50:00,
2013-03-27 20:55:00,38.5,27.0,30.26,NNE,24,2.0,6.0,63,0.00,,,0.00,HR-IXPWINDi_r2_v1.2.,2013-03-28 00:55:00,
2013-03-27 21:00:00,38.5,27.0,30.26,NNW,333,0.0,6.0,63,0.00,,,0.00,HR-IXPWINDi_r2_v1.2.,2013-03-28 01:00:00,
2013-03-27 21:06:00,38.6,26.7,30.26,NNW,330,4.0,6.0,62,0.00,,,0.00,HR-IXPWINDi_r2_v1.2.,2013-03-28 01:06:00,
2013-03-27 21:12:00,38.7,27.9,30.26,WSW,246,2.0,6.0,65,0.00,,,0.00,HR-IXPWINDi_r2_v1.2.,2013-03-28 01:12:00,
2013-03-27 21:17:00,38.4,27.3,30.26,WNW,298,0.0,6.0,64,0.00,,,0.00,HR-IXPWINDi_r2_v1.2.,2013-03-28 01:17:00,
2013-03-27 21:22:00,38.3,26.8,30.26,South,182,2.0,6.0,63,0.00,,,0.00,HR-IXPWINDi_r2_v1.2.,2013-03-28 01:22:00,
2013-03-27 21:27:00,38.3,26.8,30.26,North,355,2.0,6.0,63,0.00,,,0.00,HR-IXPWINDi_r2_v1.2.,2013-03-28 01:27:00,
2013-03-27 21:32:00,38.4,26.9,30.27,NNW,331,1.0,6.0,63,0.00,,,0.00,HR-IXPWINDi_r2_v1.2.,2013-03-28 01:32:00,
2013-03-27 21:38:00,38.5,27.0,30.27,NNE,27,1.0,5.0,63,0.00,,,0.00,HR-IXPWINDi_r2_v1.2.,2013-03-28 01:38:00,
2013-03-27 21:43:00,38.4,26.9,30.27,NW,306,1.0,5.0,63,0.00,,,0.00,HR-IXPWINDi_r2_v1.2.,2013-03-28 01:43:00,
2013-03-27 21:48:00,38.3,27.6,30.27,NW,311,0.0,4.0,65,0.00,,,0.00,HR-IXPWINDi_r2_v1.2.,2013-03-28 01:48:00,
2013-03-27 21:54:00,38.2,26.7,30.27,NW,326,0.0,4.0,63,0.00,,,0.00,HR-IXPWINDi_r2_v1.2.,2013-03-28 01:54:00,
2013-03-27 21:59:00,38.2,27.1,30.27,NNW,336,1.0,5.0,64,0.00,,,0.00,HR-IXPWINDi_r2_v1.2.,2013-03-28 01:59:00,
2013-03-27 22:04:00,38.2,27.1,30.27,WNW,284,3.0,5.0,64,0.00,,,0.00,HR-IXPWINDi_r2_v1.2.,2013-03-28 02:04:00,
2013-03-27 22:09:00,38.2,26.7,30.27,NNE,22,5.0,5.0,63,0.00,,,0.00,HR-IXPWINDi_r2_v1.2.,2013-03-28 02:09:00,
2013-03-27 22:14:00,38.2,26.7,30.27,NNE,26,0.0,5.0,63,0.00,,,0.00,HR-IXPWINDi_r2_v1.2.,2013-03-28 02:14:00,
2013-03-27 22:19:00,38.1,26.6,30.27,NW,304,4.0,5.0,63,0.00,,,0.00,HR-IXPWINDi_r2_v1.2.,2013-03-28 02:19:00,
2013-03-27 22:24:00,38.0,26.5,30.27,NW,311,2.0,4.0,63,0.00,,,0.00,HR-IXPWINDi_r2_v1.2.,2013-03-28 02:24:00,
2013-03-27 22:30:00,38.0,26.1,30.27,NE,42,3.0,5.0,62,0.00,,,0.00,HR-IXPWINDi_r2_v1.2.,2013-03-28 02:30:00,
2013-03-27 22:35:00,38.0,26.5,30.28,NNW,335,0.0,5.0,63,0.00,,,0.00,HR-IXPWINDi_r2_v1.2.,2013-03-28 02:35:00,
2013-03-27 22:40:00,37.8,26.3,30.28,NW,308,0.0,4.0,63,0.00,,,0.00,HR-IXPWINDi_r2_v1.2.,2013-03-28 02:40:00,
2013-03-27 22:45:00,37.6,26.1,30.28,East,88,0.0,3.0,63,0.00,,,0.00,HR-IXPWINDi_r2_v1.2.,2013-03-28 02:45:00,
2013-03-27 22:50:00,37.5,26.0,30.27,NW,310,4.0,4.0,63,0.00,,,0.00,HR-IXPWINDi_r2_v1.2.,2013-03-28 02:50:00,
2013-03-27 22:55:00,37.5,26.4,30.27,NNW,335,0.0,5.0,64,0.00,,,0.00,HR-IXPWINDi_r2_v1.2.,2013-03-28 02:55:00,
2013-03-27 23:00:00,37.2,26.5,30.28,NW,324,1.0,5.0,65,0.00,,,0.00,HR-IXPWINDi_r2_v1.2.,2013-03-28 03:00:00,
2013-03-27 23:05:00,37.1,26.0,30.27,NW,322,2.0,4.0,64,0.00,,,0.00,HR-IXPWINDi_r2_v1.2.,2013-03-28 03:05:00,
2013-03-27 23:11:00,37.3,26.2,30.27,NNW,340,2.0,4.0,64,0.00,,,0.00,HR-IXPWINDi_r2_v1.2.,2013-03-28 03:11:00,
2013-03-27 23:16:00,37.2,26.5,30.27,NW,323,0.0,3.0,65,0.00,,,0.00,HR-IXPWINDi_r2_v1.2.,2013-03-28 03:16:00,
2013-03-27 23:21:00,37.2,26.1,30.27,NW,324,0.0,4.0,64,0.00,,,0.00,HR-IXPWINDi_r2_v1.2.,2013-03-28 03:21:00,
2013-03-27 23:26:00,37.4,26.3,30.27,NW,311,2.0,4.0,64,0.00,,,0.00,HR-IXPWINDi_r2_v1.2.,2013-03-28 03:26:00,
2013-03-27 23:31:00,37.5,26.8,30.27,WNW,301,2.0,3.0,65,0.00,,,0.00,HR-IXPWINDi_r2_v1.2.,2013-03-28 03:31:00,
2013-03-27 23:36:00,37.5,26.8,30.27,NNE,19,1.0,4.0,65,0.00,,,0.00,HR-IXPWINDi_r2_v1.2.,2013-03-28 03:36:00,
2013-03-27 23:41:00,37.4,26.3,30.27,WNW,297,1.0,4.0,64,0.00,,,0.00,HR-IXPWINDi_r2_v1.2.,2013-03-28 03:41:00,
2013-03-27 23:46:00,37.3,27.0,30.27,NW,312,5.0,5.0,66,0.00,,,0.00,HR-IXPWINDi_r2_v1.2.,2013-03-28 03:46:00,
2013-03-27 23:52:00,37.3,27.0,30.27,NW,304,2.0,5.0,66,0.00,,,0.00,HR-IXPWINDi_r2_v1.2.,2013-03-28 03:52:00,
2013-03-27 23:57:00,37.4,27.1,30.27,North,360,0.0,9.0,66,0.00,,,0.00,HR-IXPWINDi_r2_v1.2.,2013-03-28 03:57:00,